• Join FlightAware (Why Join?)
  • Login
  • US Flag 
09:09PM EDT


 

Airport Tracker/Info


-or-


 

Live Flight TrackerFlight Track Log ✈ LOF3416 ✈ 19-Apr-2013 ✈ KIAD - KDAY

Flight Track Log - Related Links

Times and Time Zones

All times are in EDT time to prevent confusion due to time zone crossing. See the LOF3416 flight status page for this flight to view local times or setup timezone preferences in your user account.

Time Position Orientation Groundspeed Altitude Reporting Facility
EDT Latitude Longitude Course Direction KTS MPH feet Rate Location/Type
10:45PM 38.9333 -77.5333 288° West 175 201 2,800  Level Potomac TRACON
10:46PM 38.9167 -77.5833 247° West 191 220 5,300 1,920 Climbing Potomac TRACON
10:47PM 38.8829 -77.8027 260° West  Level FlightAware Approximate
10:47PM 38.8833 -77.6500 237° Southwest 236 272 6,700  Level Potomac TRACON
10:48PM 38.8691 -77.9239 293° West  Level FlightAware Approximate
10:48PM 38.8167 -77.6500 180° South 237 273 7,100  Level Potomac TRACON
10:49PM 38.9018 -78.0403 288° West  Level FlightAware Approximate
10:49PM 38.8333 -77.7000 293° West 265 305 9,100  Level Potomac TRACON
10:50PM 38.9312 -78.1582 288° West  Level FlightAware Approximate
10:50PM 38.9156 -77.7125 353° North 291 335 12,000  Level Washington Center
10:51PM 38.9967 -77.7231 354° North 291 335 13,500 1,140 Climbing Washington Center
10:52PM 38.9997 -77.7925 273° West 177 204 14,300 1,020 Climbing Washington Center
10:53PM 38.9894 -77.8936 263° West 208 239 15,600 1,200 Climbing Washington Center
10:54PM 38.9789 -77.9975 263° West 256 295 16,700 1,140 Climbing Washington Center
10:55PM 38.9706 -78.1042 264° West 290 334 17,900 1,200 Climbing Washington Center
10:56PM 38.9622 -78.2078 264° West 296 341 19,100 1,020 Climbing Washington Center
10:57PM 38.9639 -78.3119 271° West 296 341 20,000 840 Climbing Washington Center
10:58PM 38.9675 -78.4269 272° West 304 350 20,800 780 Climbing Washington Center
10:59PM 38.9711 -78.5367 272° West 310 357 21,600 780 Climbing Washington Center
11:00PM 38.9744 -78.6542 272° West 316 364 22,400 900 Climbing Washington Center
11:01PM 38.9778 -78.7719 272° West 321 369 23,400 960 Climbing Washington Center
11:02PM 38.9808 -78.8894 272° West 332 382 24,400 960 Climbing Washington Center
11:03PM 38.9836 -79.0097 272° West 332 382 25,400 780 Climbing Washington Center
11:04PM 38.9867 -79.1275 272° West 332 382 26,000 300 Climbing Washington Center
11:05PM 38.9914 -79.2478 273° West 337 388 26,000 300 Level Washington Center
11:06PM 38.9942 -79.3603 272° West 332 382 26,600 900 Climbing Washington Center
11:07PM 38.9967 -79.4725 272° West 327 376 27,800 660 Climbing Washington Center
11:08PM 38.9992 -79.5903 272° West 332 382 28,000 540 Climbing Washington Center
11:09PM 38.9994 -79.7025 270° West 346 398 28,900 480 Climbing Washington Center
11:10PM 39.0014 -79.8253 271° West 351 404 29,000  Climbing Washington Center
11:11PM 39.0036 -79.9378 271° West 340 391 29,000  Level Washington Center
11:12PM 39.0058 -80.0528 271° West 311 358 29,000  Level Washington Center
11:13PM 39.0042 -80.1458 269° West 288 331 29,000 300 Level Indianapolis Center
11:14PM 39.0072 -80.2619 272° West 318 366 29,700 480 Climbing Indianapolis Center
11:15PM 39.0083 -80.3825 271° West 337 388 30,000 120 Climbing Indianapolis Center
11:16PM 39.0231 -80.5108 278° West 362 417 30,000  Level Indianapolis Center
11:17PM 39.0392 -80.6256 280° West 333 383 30,000  Level Indianapolis Center
11:18PM 39.0581 -80.7594 280° West 319 367 30,000  Level Indianapolis Center
11:19PM 39.0722 -80.8700 279° West 315 362 30,000  Level Indianapolis Center
11:20PM 39.0886 -80.9822 281° West 317 365 30,000  Level Indianapolis Center
11:21PM 39.1047 -81.1053 280° West 345 397 30,000  Level Indianapolis Center
11:22PM 39.1225 -81.2331 280° West 363 418 30,000  Level Indianapolis Center
11:23PM 39.1400 -81.3653 280° West 375 432 30,000  Level Indianapolis Center
11:24PM 39.1578 -81.4992 280° West 381 438 30,000  Level Indianapolis Center
11:25PM 39.1753 -81.6325 280° West 381 438 30,000  Level Indianapolis Center
11:26PM 39.1914 -81.7614 279° West 368 423 30,000 -480 Level Indianapolis Center
11:27PM 39.2072 -81.8864 279° West 357 411 29,100 -1,200 Descending Indianapolis Center
11:28PM 39.2231 -82.0100 279° West 352 405 27,600 -1,680 Descending Indianapolis Center
11:29PM 39.2414 -82.1547 279° West 340 391 25,800 -1,680 Descending Indianapolis Center
11:30PM 39.2564 -82.2703 280° West 329 379 24,300 -1,500 Descending Indianapolis Center
11:31PM 39.2708 -82.3917 279° West 341 392 22,800 -1,560 Descending Indianapolis Center
11:32PM 39.2867 -82.5153 279° West 352 405 21,200 -1,440 Descending Indianapolis Center
11:33PM 39.3008 -82.6372 279° West 341 392 19,900 -1,320 Descending Indianapolis Center
11:34PM 39.3150 -82.7558 279° West 334 384 18,600 -1,320 Descending Indianapolis Center
11:35PM 39.3294 -82.8736 279° West 328 377 17,300 -1,380 Descending Indianapolis Center
11:36PM 39.3419 -82.9894 278° West 323 372 15,900 -1,200 Descending Indianapolis Center
11:37PM 39.3561 -83.1058 279° West 325 374 14,900 -1,020 Descending Indianapolis Center
11:38PM 39.3689 -83.2233 278° West 327 376 13,900 -1,020 Descending Indianapolis Center
11:39PM 39.3794 -83.3350 277° West 312 359 12,900 -960 Descending Indianapolis Center
11:40PM 39.3869 -83.4503 275° West 307 353 12,000 -840 Descending Indianapolis Center
11:41PM 39.4081 -83.5508 285° West 311 358 11,200 -900 Descending Indianapolis Center
11:42PM 39.4906 -83.6064 333° Northwest 330 380 10,200 -840 Descending Indianapolis Center
11:43PM 39.5619 -83.6525 334° Northwest 292 336 9,600 -1,080 Descending Indianapolis Center
11:44PM 39.6228 -83.6922 333° Northwest 250 288 8,100 -1,560 Descending Indianapolis Center
11:45PM 39.6806 -83.7317 332° Northwest 239 275 6,500 -1,080 Descending Indianapolis Center
11:46PM 39.7394 -83.7644 337° Northwest 232 267 6,000 -300 Descending Indianapolis Center
11:47PM 39.8081 -83.7867 346° North 216 249 6,000 -300 Level Indianapolis Center
11:49PM 39.8633 -83.8047 346° North 196 226 5,400 -1,020 Descending Indianapolis Center
11:50PM 39.9136 -83.8200 347° North 208 239 4,000 -720 Descending Indianapolis Center
11:51PM 39.9664 -83.8531 334° Northwest 181 208 4,000 -300 Level Indianapolis Center
11:51PM 39.9867 -83.8911 305° West 157 181 3,500 -660 Descending Indianapolis Center
11:52PM 39.9947 -83.9519 280° West 193 222 2,900 -660 Descending Indianapolis Center
11:53PM 39.9944 -83.9653 268° West 183 211 2,700 -300 Descending Indianapolis Center
11:53PM 39.9872 -84.0192 260° West 167 192 2,600 -60 Descending Indianapolis Center
11:54PM 39.9706 -84.0742 248° West 165 190 2,600  Level Indianapolis Center